sensor_id;sensor_type;location;lat;lon;timestamp;P1;durP1;ratioP1;P2;durP2;ratioP2
38567;SDS011;24338;48.280;10.970;2023-01-05T00:01:33;0.80;;;0.20;;
38567;SDS011;24338;48.280;10.970;2023-01-05T00:04:00;1.30;;;0.30;;
38567;SDS011;24338;48.280;10.970;2023-01-05T00:06:27;0.77;;;0.20;;
38567;SDS011;24338;48.280;10.970;2023-01-05T00:08:54;2.45;;;0.30;;
38567;SDS011;24338;48.280;10.970;2023-01-05T00:11:22;1.38;;;0.40;;
38567;SDS011;24338;48.280;10.970;2023-01-05T00:14:12;0.77;;;0.30;;
38567;SDS011;24338;48.280;10.970;2023-01-05T00:16:59;0.55;;;0.30;;
38567;SDS011;24338;48.280;10.970;2023-01-05T00:19:45;1.27;;;0.25;;
38567;SDS011;24338;48.280;10.970;2023-01-05T00:22:31;0.73;;;0.30;;
38567;SDS011;24338;48.280;10.970;2023-01-05T00:25:10;0.80;;;0.30;;
38567;SDS011;24338;48.280;10.970;2023-01-05T00:27:39;0.82;;;0.32;;
38567;SDS011;24338;48.280;10.970;2023-01-05T00:30:08;1.10;;;0.40;;
38567;SDS011;24338;48.280;10.970;2023-01-05T00:32:36;0.85;;;0.30;;
38567;SDS011;24338;48.280;10.970;2023-01-05T00:35:04;0.77;;;0.30;;
38567;SDS011;24338;48.280;10.970;2023-01-05T00:37:31;1.20;;;0.30;;
38567;SDS011;24338;48.280;10.970;2023-01-05T00:39:59;0.65;;;0.20;;
38567;SDS011;24338;48.280;10.970;2023-01-05T00:42:26;1.27;;;0.32;;
38567;SDS011;24338;48.280;10.970;2023-01-05T00:44:53;1.13;;;0.40;;
38567;SDS011;24338;48.280;10.970;2023-01-05T00:47:20;1.17;;;0.35;;
38567;SDS011;24338;48.280;10.970;2023-01-05T00:49:47;0.88;;;0.20;;
38567;SDS011;24338;48.280;10.970;2023-01-05T00:52:14;0.85;;;0.30;;
38567;SDS011;24338;48.280;10.970;2023-01-05T00:54:41;1.77;;;0.40;;
38567;SDS011;24338;48.280;10.970;2023-01-05T00:57:11;2.25;;;0.40;;
38567;SDS011;24338;48.280;10.970;2023-01-05T00:59:39;0.65;;;0.28;;
38567;SDS011;24338;48.280;10.970;2023-01-05T01:02:06;1.23;;;0.50;;
38567;SDS011;24338;48.280;10.970;2023-01-05T01:04:33;1.85;;;0.32;;
38567;SDS011;24338;48.280;10.970;2023-01-05T01:07:01;1.08;;;0.40;;
38567;SDS011;24338;48.280;10.970;2023-01-05T01:09:28;0.98;;;0.40;;
38567;SDS011;24338;48.280;10.970;2023-01-05T01:11:56;1.05;;;0.32;;
38567;SDS011;24338;48.280;10.970;2023-01-05T01:14:24;0.88;;;0.30;;
38567;SDS011;24338;48.280;10.970;2023-01-05T01:16:51;1.48;;;0.20;;
38567;SDS011;24338;48.280;10.970;2023-01-05T01:19:19;1.80;;;0.35;;
38567;SDS011;24338;48.280;10.970;2023-01-05T01:21:47;2.25;;;0.43;;
38567;SDS011;24338;48.280;10.970;2023-01-05T01:24:16;0.82;;;0.30;;
38567;SDS011;24338;48.280;10.970;2023-01-05T01:26:48;1.17;;;0.22;;
38567;SDS011;24338;48.280;10.970;2023-01-05T01:29:14;1.92;;;0.28;;
38567;SDS011;24338;48.280;10.970;2023-01-05T01:31:46;1.73;;;0.40;;
38567;SDS011;24338;48.280;10.970;2023-01-05T01:34:13;1.45;;;0.40;;
38567;SDS011;24338;48.280;10.970;2023-01-05T01:36:41;1.00;;;0.30;;
38567;SDS011;24338;48.280;10.970;2023-01-05T01:39:08;0.63;;;0.20;;
38567;SDS011;24338;48.280;10.970;2023-01-05T01:41:35;1.15;;;0.20;;
38567;SDS011;24338;48.280;10.970;2023-01-05T01:44:44;0.55;;;0.25;;
38567;SDS011;24338;48.280;10.970;2023-01-05T01:52:31;0.90;;;0.30;;
38567;SDS011;24338;48.280;10.970;2023-01-05T01:55:00;0.95;;;0.30;;
38567;SDS011;24338;48.280;10.970;2023-01-05T01:57:29;0.95;;;0.30;;
38567;SDS011;24338;48.280;10.970;2023-01-05T01:59:57;0.57;;;0.20;;
38567;SDS011;24338;48.280;10.970;2023-01-05T02:02:27;1.05;;;0.30;;
38567;SDS011;24338;48.280;10.970;2023-01-05T02:04:56;0.90;;;0.40;;
38567;SDS011;24338;48.280;10.970;2023-01-05T02:09:57;0.63;;;0.30;;
38567;SDS011;24338;48.280;10.970;2023-01-05T02:29:29;0.50;;;0.20;;
38567;SDS011;24338;48.280;10.970;2023-01-05T02:32:18;0.90;;;0.30;;
38567;SDS011;24338;48.280;10.970;2023-01-05T02:35:05;1.63;;;0.50;;
38567;SDS011;24338;48.280;10.970;2023-01-05T02:41:07;1.80;;;0.40;;
38567;SDS011;24338;48.280;10.970;2023-01-05T02:43:43;0.93;;;0.28;;
38567;SDS011;24338;48.280;10.970;2023-01-05T02:46:10;1.95;;;0.50;;
38567;SDS011;24338;48.280;10.970;2023-01-05T02:48:38;0.65;;;0.28;;
38567;SDS011;24338;48.280;10.970;2023-01-05T02:51:09;0.80;;;0.25;;
38567;SDS011;24338;48.280;10.970;2023-01-05T02:53:48;0.73;;;0.20;;
38567;SDS011;24338;48.280;10.970;2023-01-05T02:56:45;0.63;;;0.28;;
38567;SDS011;24338;48.280;10.970;2023-01-05T02:59:23;0.95;;;0.20;;
38567;SDS011;24338;48.280;10.970;2023-01-05T03:01:58;0.73;;;0.20;;
38567;SDS011;24338;48.280;10.970;2023-01-05T03:04:32;1.17;;;0.22;;
38567;SDS011;24338;48.280;10.970;2023-01-05T03:07:08;1.55;;;0.40;;
38567;SDS011;24338;48.280;10.970;2023-01-05T03:09:40;0.38;;;0.10;;
38567;SDS011;24338;48.280;10.970;2023-01-05T03:12:18;1.10;;;0.35;;
38567;SDS011;24338;48.280;10.970;2023-01-05T03:15:15;2.08;;;0.30;;
38567;SDS011;24338;48.280;10.970;2023-01-05T03:17:56;0.77;;;0.28;;
38567;SDS011;24338;48.280;10.970;2023-01-05T03:20:26;3.17;;;0.32;;
38567;SDS011;24338;48.280;10.970;2023-01-05T03:22:55;0.55;;;0.20;;
38567;SDS011;24338;48.280;10.970;2023-01-05T03:25:43;1.35;;;0.35;;
38567;SDS011;24338;48.280;10.970;2023-01-05T03:28:34;0.50;;;0.20;;
38567;SDS011;24338;48.280;10.970;2023-01-05T03:31:27;1.35;;;0.28;;
38567;SDS011;24338;48.280;10.970;2023-01-05T03:37:32;0.57;;;0.30;;
38567;SDS011;24338;48.280;10.970;2023-01-05T03:40:04;0.98;;;0.35;;
38567;SDS011;24338;48.280;10.970;2023-01-05T03:42:35;0.82;;;0.10;;
38567;SDS011;24338;48.280;10.970;2023-01-05T03:45:03;0.52;;;0.25;;
38567;SDS011;24338;48.280;10.970;2023-01-05T03:47:32;0.98;;;0.25;;
38567;SDS011;24338;48.280;10.970;2023-01-05T03:49:59;0.82;;;0.22;;
38567;SDS011;24338;48.280;10.970;2023-01-05T03:52:26;1.75;;;0.20;;
38567;SDS011;24338;48.280;10.970;2023-01-05T03:54:52;0.85;;;0.20;;
38567;SDS011;24338;48.280;10.970;2023-01-05T03:57:19;1.02;;;0.32;;
38567;SDS011;24338;48.280;10.970;2023-01-05T03:59:46;0.38;;;0.10;;
38567;SDS011;24338;48.280;10.970;2023-01-05T04:02:13;0.40;;;0.22;;
38567;SDS011;24338;48.280;10.970;2023-01-05T04:04:40;1.00;;;0.30;;
38567;SDS011;24338;48.280;10.970;2023-01-05T04:07:07;0.98;;;0.40;;
38567;SDS011;24338;48.280;10.970;2023-01-05T04:09:34;1.25;;;0.20;;
38567;SDS011;24338;48.280;10.970;2023-01-05T04:12:00;0.50;;;0.20;;
38567;SDS011;24338;48.280;10.970;2023-01-05T04:14:27;0.60;;;0.22;;
38567;SDS011;24338;48.280;10.970;2023-01-05T04:16:54;0.68;;;0.10;;
38567;SDS011;24338;48.280;10.970;2023-01-05T04:19:21;1.38;;;0.30;;
38567;SDS011;24338;48.280;10.970;2023-01-05T04:21:48;0.55;;;0.10;;
38567;SDS011;24338;48.280;10.970;2023-01-05T04:24:15;1.20;;;0.38;;
38567;SDS011;24338;48.280;10.970;2023-01-05T04:26:41;1.85;;;0.17;;
38567;SDS011;24338;48.280;10.970;2023-01-05T04:29:09;0.75;;;0.17;;
38567;SDS011;24338;48.280;10.970;2023-01-05T04:31:36;0.43;;;0.20;;
38567;SDS011;24338;48.280;10.970;2023-01-05T04:34:03;0.47;;;0.10;;
38567;SDS011;24338;48.280;10.970;2023-01-05T04:36:30;0.43;;;0.20;;
38567;SDS011;24338;48.280;10.970;2023-01-05T04:38:57;1.95;;;0.30;;
38567;SDS011;24338;48.280;10.970;2023-01-05T04:41:23;0.38;;;0.10;;
38567;SDS011;24338;48.280;10.970;2023-01-05T04:43:50;0.75;;;0.20;;
38567;SDS011;24338;48.280;10.970;2023-01-05T04:46:17;0.63;;;0.15;;
38567;SDS011;24338;48.280;10.970;2023-01-05T04:48:44;1.25;;;0.22;;
38567;SDS011;24338;48.280;10.970;2023-01-05T04:51:11;0.22;;;0.05;;
38567;SDS011;24338;48.280;10.970;2023-01-05T04:53:38;1.30;;;0.30;;
38567;SDS011;24338;48.280;10.970;2023-01-05T04:56:05;1.85;;;0.20;;
38567;SDS011;24338;48.280;10.970;2023-01-05T04:58:32;0.40;;;0.10;;
38567;SDS011;24338;48.280;10.970;2023-01-05T05:00:59;0.38;;;0.10;;
38567;SDS011;24338;48.280;10.970;2023-01-05T05:03:26;0.55;;;0.17;;
38567;SDS011;24338;48.280;10.970;2023-01-05T05:05:58;0.90;;;0.20;;
38567;SDS011;24338;48.280;10.970;2023-01-05T05:10:59;3.38;;;0.28;;
38567;SDS011;24338;48.280;10.970;2023-01-05T05:13:26;0.13;;;0.10;;
38567;SDS011;24338;48.280;10.970;2023-01-05T05:15:53;0.65;;;0.20;;
38567;SDS011;24338;48.280;10.970;2023-01-05T05:18:20;0.20;;;0.03;;
38567;SDS011;24338;48.280;10.970;2023-01-05T05:20:48;0.80;;;0.20;;
38567;SDS011;24338;48.280;10.970;2023-01-05T05:23:16;1.10;;;0.05;;
38567;SDS011;24338;48.280;10.970;2023-01-05T05:25:43;0.43;;;0.10;;
38567;SDS011;24338;48.280;10.970;2023-01-05T05:28:10;0.15;;;0.05;;
38567;SDS011;24338;48.280;10.970;2023-01-05T05:30:37;1.52;;;0.20;;
38567;SDS011;24338;48.280;10.970;2023-01-05T05:33:04;1.17;;;0.65;;
38567;SDS011;24338;48.280;10.970;2023-01-05T05:35:31;0.50;;;0.10;;
38567;SDS011;24338;48.280;10.970;2023-01-05T05:37:58;0.30;;;0.10;;
38567;SDS011;24338;48.280;10.970;2023-01-05T05:40:26;1.23;;;0.10;;
38567;SDS011;24338;48.280;10.970;2023-01-05T05:42:54;0.20;;;0.10;;
38567;SDS011;24338;48.280;10.970;2023-01-05T05:45:21;0.63;;;0.10;;
38567;SDS011;24338;48.280;10.970;2023-01-05T05:47:47;0.85;;;0.20;;
38567;SDS011;24338;48.280;10.970;2023-01-05T05:50:14;0.82;;;0.25;;
38567;SDS011;24338;48.280;10.970;2023-01-05T05:52:41;0.65;;;0.10;;
38567;SDS011;24338;48.280;10.970;2023-01-05T05:55:08;1.02;;;0.20;;
38567;SDS011;24338;48.280;10.970;2023-01-05T05:57:35;0.60;;;0.10;;
38567;SDS011;24338;48.280;10.970;2023-01-05T06:00:02;1.48;;;0.10;;
38567;SDS011;24338;48.280;10.970;2023-01-05T06:02:30;0.60;;;0.30;;
38567;SDS011;24338;48.280;10.970;2023-01-05T06:04:57;0.98;;;0.30;;
38567;SDS011;24338;48.280;10.970;2023-01-05T06:07:24;1.00;;;0.20;;
38567;SDS011;24338;48.280;10.970;2023-01-05T06:09:51;2.20;;;0.15;;
38567;SDS011;24338;48.280;10.970;2023-01-05T06:12:18;0.52;;;0.17;;
38567;SDS011;24338;48.280;10.970;2023-01-05T06:14:45;0.70;;;0.20;;
38567;SDS011;24338;48.280;10.970;2023-01-05T06:17:12;1.25;;;0.10;;
38567;SDS011;24338;48.280;10.970;2023-01-05T06:19:38;4.05;;;0.30;;
38567;SDS011;24338;48.280;10.970;2023-01-05T06:22:05;1.52;;;0.30;;
38567;SDS011;24338;48.280;10.970;2023-01-05T06:24:32;0.30;;;0.10;;
38567;SDS011;24338;48.280;10.970;2023-01-05T06:26:59;0.73;;;0.28;;
38567;SDS011;24338;48.280;10.970;2023-01-05T06:29:26;0.50;;;0.20;;
38567;SDS011;24338;48.280;10.970;2023-01-05T06:31:53;0.77;;;0.20;;
38567;SDS011;24338;48.280;10.970;2023-01-05T06:34:20;0.30;;;0.10;;
38567;SDS011;24338;48.280;10.970;2023-01-05T06:36:47;0.32;;;0.10;;
38567;SDS011;24338;48.280;10.970;2023-01-05T06:39:14;0.85;;;0.20;;
38567;SDS011;24338;48.280;10.970;2023-01-05T06:41:40;0.55;;;0.20;;
38567;SDS011;24338;48.280;10.970;2023-01-05T06:44:07;0.50;;;0.20;;
38567;SDS011;24338;48.280;10.970;2023-01-05T06:46:34;0.30;;;0.20;;
38567;SDS011;24338;48.280;10.970;2023-01-05T06:49:01;1.17;;;0.10;;
38567;SDS011;24338;48.280;10.970;2023-01-05T06:51:28;2.17;;;0.22;;
38567;SDS011;24338;48.280;10.970;2023-01-05T06:53:55;0.60;;;0.20;;
38567;SDS011;24338;48.280;10.970;2023-01-05T06:56:22;0.65;;;0.20;;
38567;SDS011;24338;48.280;10.970;2023-01-05T06:58:49;0.77;;;0.20;;
38567;SDS011;24338;48.280;10.970;2023-01-05T07:01:15;0.35;;;0.20;;
38567;SDS011;24338;48.280;10.970;2023-01-05T07:03:42;0.50;;;0.10;;
38567;SDS011;24338;48.280;10.970;2023-01-05T07:06:11;1.02;;;0.20;;
38567;SDS011;24338;48.280;10.970;2023-01-05T07:08:40;0.30;;;0.10;;
38567;SDS011;24338;48.280;10.970;2023-01-05T07:11:07;1.08;;;0.30;;
38567;SDS011;24338;48.280;10.970;2023-01-05T07:13:34;0.20;;;0.10;;
38567;SDS011;24338;48.280;10.970;2023-01-05T07:16:01;0.40;;;0.13;;
38567;SDS011;24338;48.280;10.970;2023-01-05T07:18:28;2.55;;;0.20;;
38567;SDS011;24338;48.280;10.970;2023-01-05T07:20:57;0.30;;;0.13;;
38567;SDS011;24338;48.280;10.970;2023-01-05T07:23:25;0.38;;;0.10;;
38567;SDS011;24338;48.280;10.970;2023-01-05T07:25:52;0.60;;;0.10;;
38567;SDS011;24338;48.280;10.970;2023-01-05T07:28:19;0.55;;;0.20;;
38567;SDS011;24338;48.280;10.970;2023-01-05T07:30:50;0.25;;;0.10;;
38567;SDS011;24338;48.280;10.970;2023-01-05T07:33:17;0.60;;;0.10;;
38567;SDS011;24338;48.280;10.970;2023-01-05T07:35:45;0.20;;;0.00;;
38567;SDS011;24338;48.280;10.970;2023-01-05T07:38:11;0.00;;;0.00;;
38567;SDS011;24338;48.280;10.970;2023-01-05T07:40:38;0.20;;;0.00;;
38567;SDS011;24338;48.280;10.970;2023-01-05T07:43:05;0.95;;;0.50;;
38567;SDS011;24338;48.280;10.970;2023-01-05T07:45:32;0.10;;;0.10;;
38567;SDS011;24338;48.280;10.970;2023-01-05T07:48:00;1.20;;;0.10;;
38567;SDS011;24338;48.280;10.970;2023-01-05T07:50:28;0.20;;;0.00;;
38567;SDS011;24338;48.280;10.970;2023-01-05T07:52:55;0.40;;;0.10;;
38567;SDS011;24338;48.280;10.970;2023-01-05T07:55:24;0.55;;;0.08;;
38567;SDS011;24338;48.280;10.970;2023-01-05T07:57:51;0.40;;;0.00;;
38567;SDS011;24338;48.280;10.970;2023-01-05T08:00:18;0.15;;;0.00;;
38567;SDS011;24338;48.280;10.970;2023-01-05T08:02:45;0.30;;;0.10;;
38567;SDS011;24338;48.280;10.970;2023-01-05T08:05:12;0.85;;;0.20;;
38567;SDS011;24338;48.280;10.970;2023-01-05T08:07:39;0.73;;;0.20;;
38567;SDS011;24338;48.280;10.970;2023-01-05T08:10:06;0.35;;;0.10;;
38567;SDS011;24338;48.280;10.970;2023-01-05T08:12:51;0.63;;;0.10;;
38567;SDS011;24338;48.280;10.970;2023-01-05T08:15:37;0.52;;;0.10;;
38567;SDS011;24338;48.280;10.970;2023-01-05T08:18:03;2.13;;;0.20;;
38567;SDS011;24338;48.280;10.970;2023-01-05T08:20:30;0.95;;;0.35;;
38567;SDS011;24338;48.280;10.970;2023-01-05T08:22:57;0.30;;;0.20;;
38567;SDS011;24338;48.280;10.970;2023-01-05T08:25:24;0.20;;;0.08;;
38567;SDS011;24338;48.280;10.970;2023-01-05T08:27:51;0.50;;;0.20;;
38567;SDS011;24338;48.280;10.970;2023-01-05T08:30:18;1.48;;;0.70;;
38567;SDS011;24338;48.280;10.970;2023-01-05T08:32:45;0.77;;;0.30;;
38567;SDS011;24338;48.280;10.970;2023-01-05T08:35:11;1.08;;;0.40;;
38567;SDS011;24338;48.280;10.970;2023-01-05T08:37:38;0.50;;;0.22;;
38567;SDS011;24338;48.280;10.970;2023-01-05T08:40:05;0.80;;;0.30;;
38567;SDS011;24338;48.280;10.970;2023-01-05T08:42:34;0.85;;;0.32;;
38567;SDS011;24338;48.280;10.970;2023-01-05T08:45:01;1.40;;;0.60;;
38567;SDS011;24338;48.280;10.970;2023-01-05T08:47:28;0.85;;;0.20;;
38567;SDS011;24338;48.280;10.970;2023-01-05T08:49:55;0.63;;;0.10;;
38567;SDS011;24338;48.280;10.970;2023-01-05T08:52:22;0.60;;;0.30;;
38567;SDS011;24338;48.280;10.970;2023-01-05T08:54:49;1.20;;;0.50;;
38567;SDS011;24338;48.280;10.970;2023-01-05T08:57:16;1.63;;;0.40;;
38567;SDS011;24338;48.280;10.970;2023-01-05T08:59:42;0.77;;;0.20;;
38567;SDS011;24338;48.280;10.970;2023-01-05T09:02:14;0.68;;;0.20;;
38567;SDS011;24338;48.280;10.970;2023-01-05T09:04:50;0.60;;;0.10;;
38567;SDS011;24338;48.280;10.970;2023-01-05T09:07:17;0.50;;;0.10;;
38567;SDS011;24338;48.280;10.970;2023-01-05T09:09:44;1.10;;;0.30;;
38567;SDS011;24338;48.280;10.970;2023-01-05T09:12:10;0.93;;;0.30;;
38567;SDS011;24338;48.280;10.970;2023-01-05T09:14:37;1.20;;;0.10;;
38567;SDS011;24338;48.280;10.970;2023-01-05T09:17:04;1.05;;;0.38;;
38567;SDS011;24338;48.280;10.970;2023-01-05T09:19:33;0.25;;;0.10;;
38567;SDS011;24338;48.280;10.970;2023-01-05T09:22:00;0.85;;;0.40;;
38567;SDS011;24338;48.280;10.970;2023-01-05T09:24:27;0.25;;;0.20;;
38567;SDS011;24338;48.280;10.970;2023-01-05T09:26:53;0.80;;;0.20;;
38567;SDS011;24338;48.280;10.970;2023-01-05T09:29:21;1.00;;;0.10;;
38567;SDS011;24338;48.280;10.970;2023-01-05T09:31:48;0.52;;;0.13;;
38567;SDS011;24338;48.280;10.970;2023-01-05T09:34:15;0.50;;;0.15;;
38567;SDS011;24338;48.280;10.970;2023-01-05T09:36:44;0.88;;;0.20;;
38567;SDS011;24338;48.280;10.970;2023-01-05T09:39:11;0.32;;;0.10;;
38567;SDS011;24338;48.280;10.970;2023-01-05T09:47:02;0.30;;;0.10;;
38567;SDS011;24338;48.280;10.970;2023-01-05T09:49:30;0.50;;;0.20;;
38567;SDS011;24338;48.280;10.970;2023-01-05T09:52:01;0.25;;;0.10;;
38567;SDS011;24338;48.280;10.970;2023-01-05T09:54:35;3.33;;;1.10;;
38567;SDS011;24338;48.280;10.970;2023-01-05T09:57:03;0.95;;;0.20;;
38567;SDS011;24338;48.280;10.970;2023-01-05T09:59:40;0.73;;;0.10;;
38567;SDS011;24338;48.280;10.970;2023-01-05T10:04:46;1.23;;;0.20;;
38567;SDS011;24338;48.280;10.970;2023-01-05T10:07:25;1.15;;;0.17;;
38567;SDS011;24338;48.280;10.970;2023-01-05T10:09:56;1.15;;;0.75;;
38567;SDS011;24338;48.280;10.970;2023-01-05T10:12:30;0.98;;;0.30;;
38567;SDS011;24338;48.280;10.970;2023-01-05T10:15:25;1.95;;;0.82;;
38567;SDS011;24338;48.280;10.970;2023-01-05T10:17:53;1.42;;;0.40;;
38567;SDS011;24338;48.280;10.970;2023-01-05T10:20:25;1.50;;;0.50;;
38567;SDS011;24338;48.280;10.970;2023-01-05T10:25:49;0.77;;;0.20;;
38567;SDS011;24338;48.280;10.970;2023-01-05T10:28:41;1.77;;;0.57;;
38567;SDS011;24338;48.280;10.970;2023-01-05T10:42:10;1.38;;;0.30;;
38567;SDS011;24338;48.280;10.970;2023-01-05T10:47:15;0.52;;;0.10;;
38567;SDS011;24338;48.280;10.970;2023-01-05T10:49:42;1.23;;;0.35;;
38567;SDS011;24338;48.280;10.970;2023-01-05T10:52:12;0.98;;;0.13;;
38567;SDS011;24338;48.280;10.970;2023-01-05T10:54:46;1.08;;;0.10;;
38567;SDS011;24338;48.280;10.970;2023-01-05T11:02:35;0.40;;;0.10;;
38567;SDS011;24338;48.280;10.970;2023-01-05T11:08:06;0.98;;;0.20;;
38567;SDS011;24338;48.280;10.970;2023-01-05T11:10:57;1.02;;;0.30;;
38567;SDS011;24338;48.280;10.970;2023-01-05T11:13:33;0.90;;;0.20;;
38567;SDS011;24338;48.280;10.970;2023-01-05T11:16:14;1.20;;;0.20;;
38567;SDS011;24338;48.280;10.970;2023-01-05T11:21:19;2.53;;;0.73;;
38567;SDS011;24338;48.280;10.970;2023-01-05T11:26:25;0.47;;;0.10;;
38567;SDS011;24338;48.280;10.970;2023-01-05T11:31:51;0.57;;;0.05;;
38567;SDS011;24338;48.280;10.970;2023-01-05T11:37:12;0.38;;;0.00;;
38567;SDS011;24338;48.280;10.970;2023-01-05T11:39:58;1.75;;;0.20;;
38567;SDS011;24338;48.280;10.970;2023-01-05T11:42:31;0.30;;;0.00;;
38567;SDS011;24338;48.280;10.970;2023-01-05T11:45:04;0.40;;;0.20;;
38567;SDS011;24338;48.280;10.970;2023-01-05T11:47:42;0.80;;;0.52;;
38567;SDS011;24338;48.280;10.970;2023-01-05T11:50:24;1.88;;;0.45;;
38567;SDS011;24338;48.280;10.970;2023-01-05T11:52:54;0.80;;;0.20;;
38567;SDS011;24338;48.280;10.970;2023-01-05T11:58:21;1.00;;;0.20;;
38567;SDS011;24338;48.280;10.970;2023-01-05T12:09:33;0.65;;;0.15;;
38567;SDS011;24338;48.280;10.970;2023-01-05T12:17:38;1.25;;;0.32;;
38567;SDS011;24338;48.280;10.970;2023-01-05T12:32:34;0.68;;;0.20;;
38567;SDS011;24338;48.280;10.970;2023-01-05T12:35:45;1.13;;;0.30;;
38567;SDS011;24338;48.280;10.970;2023-01-05T12:38:47;0.45;;;0.20;;
38567;SDS011;24338;48.280;10.970;2023-01-05T12:44:05;0.15;;;0.08;;
38567;SDS011;24338;48.280;10.970;2023-01-05T12:47:05;0.40;;;0.10;;
38567;SDS011;24338;48.280;10.970;2023-01-05T12:50:00;1.00;;;0.20;;
38567;SDS011;24338;48.280;10.970;2023-01-05T12:52:44;0.68;;;0.20;;
38567;SDS011;24338;48.280;10.970;2023-01-05T12:55:19;0.60;;;0.10;;
38567;SDS011;24338;48.280;10.970;2023-01-05T12:58:03;5.07;;;0.22;;
38567;SDS011;24338;48.280;10.970;2023-01-05T13:00:43;4.78;;;2.28;;
38567;SDS011;24338;48.280;10.970;2023-01-05T13:03:18;1.95;;;0.50;;
38567;SDS011;24338;48.280;10.970;2023-01-05T13:05:59;1.48;;;0.25;;
38567;SDS011;24338;48.280;10.970;2023-01-05T13:08:42;0.63;;;0.10;;
38567;SDS011;24338;48.280;10.970;2023-01-05T13:11:30;1.25;;;0.15;;
38567;SDS011;24338;48.280;10.970;2023-01-05T13:14:12;0.73;;;0.20;;
38567;SDS011;24338;48.280;10.970;2023-01-05T13:16:49;1.70;;;0.38;;
38567;SDS011;24338;48.280;10.970;2023-01-05T13:19:31;0.80;;;0.20;;
38567;SDS011;24338;48.280;10.970;2023-01-05T13:22:05;2.58;;;0.30;;
38567;SDS011;24338;48.280;10.970;2023-01-05T13:27:46;0.70;;;0.20;;
38567;SDS011;24338;48.280;10.970;2023-01-05T13:30:20;0.98;;;0.10;;
38567;SDS011;24338;48.280;10.970;2023-01-05T13:38:09;1.45;;;0.20;;
38567;SDS011;24338;48.280;10.970;2023-01-05T13:43:39;0.77;;;0.20;;
38567;SDS011;24338;48.280;10.970;2023-01-05T13:54:36;6.15;;;0.52;;
38567;SDS011;24338;48.280;10.970;2023-01-05T13:57:23;1.90;;;0.38;;
38567;SDS011;24338;48.280;10.970;2023-01-05T13:59:54;2.20;;;0.28;;
38567;SDS011;24338;48.280;10.970;2023-01-05T14:02:42;2.35;;;0.30;;
38567;SDS011;24338;48.280;10.970;2023-01-05T14:05:28;1.90;;;0.70;;
38567;SDS011;24338;48.280;10.970;2023-01-05T14:08:03;0.75;;;0.20;;
38567;SDS011;24338;48.280;10.970;2023-01-05T14:10:39;2.75;;;0.60;;
38567;SDS011;24338;48.280;10.970;2023-01-05T14:13:38;4.93;;;0.50;;
38567;SDS011;24338;48.280;10.970;2023-01-05T14:24:25;3.80;;;1.10;;
38567;SDS011;24338;48.280;10.970;2023-01-05T14:27:14;7.22;;;1.00;;
38567;SDS011;24338;48.280;10.970;2023-01-05T14:32:34;4.32;;;0.93;;
38567;SDS011;24338;48.280;10.970;2023-01-05T14:40:14;3.92;;;0.90;;
38567;SDS011;24338;48.280;10.970;2023-01-05T14:43:01;4.85;;;1.17;;
38567;SDS011;24338;48.280;10.970;2023-01-05T14:45:31;4.53;;;1.58;;
38567;SDS011;24338;48.280;10.970;2023-01-05T14:48:06;4.95;;;1.10;;
38567;SDS011;24338;48.280;10.970;2023-01-05T14:51:05;4.40;;;1.25;;
38567;SDS011;24338;48.280;10.970;2023-01-05T15:01:17;2.70;;;0.93;;
38567;SDS011;24338;48.280;10.970;2023-01-05T15:12:00;8.88;;;2.13;;
38567;SDS011;24338;48.280;10.970;2023-01-05T15:14:45;8.00;;;3.05;;
38567;SDS011;24338;48.280;10.970;2023-01-05T15:25:59;11.10;;;5.40;;
38567;SDS011;24338;48.280;10.970;2023-01-05T15:34:54;11.90;;;5.63;;
38567;SDS011;24338;48.280;10.970;2023-01-05T15:37:29;10.07;;;3.70;;
38567;SDS011;24338;48.280;10.970;2023-01-05T15:39:57;6.97;;;2.22;;
38567;SDS011;24338;48.280;10.970;2023-01-05T15:42:39;5.18;;;2.10;;
38567;SDS011;24338;48.280;10.970;2023-01-05T15:45:17;12.88;;;1.92;;
38567;SDS011;24338;48.280;10.970;2023-01-05T15:47:49;7.13;;;2.10;;
38567;SDS011;24338;48.280;10.970;2023-01-05T15:50:22;4.70;;;2.20;;
38567;SDS011;24338;48.280;10.970;2023-01-05T15:52:58;7.40;;;1.95;;
38567;SDS011;24338;48.280;10.970;2023-01-05T15:55:27;7.43;;;3.03;;
38567;SDS011;24338;48.280;10.970;2023-01-05T15:57:56;11.82;;;6.63;;
38567;SDS011;24338;48.280;10.970;2023-01-05T16:00:26;17.15;;;10.02;;
38567;SDS011;24338;48.280;10.970;2023-01-05T16:02:55;12.45;;;6.82;;
38567;SDS011;24338;48.280;10.970;2023-01-05T16:05:23;10.23;;;4.70;;
38567;SDS011;24338;48.280;10.970;2023-01-05T16:13:20;8.85;;;4.15;;
38567;SDS011;24338;48.280;10.970;2023-01-05T16:19:14;9.45;;;4.25;;
38567;SDS011;24338;48.280;10.970;2023-01-05T16:21:44;8.68;;;4.47;;
38567;SDS011;24338;48.280;10.970;2023-01-05T16:24:23;12.57;;;7.03;;
38567;SDS011;24338;48.280;10.970;2023-01-05T16:26:53;13.45;;;6.97;;
38567;SDS011;24338;48.280;10.970;2023-01-05T16:31:59;18.75;;;9.10;;
38567;SDS011;24338;48.280;10.970;2023-01-05T16:34:27;15.73;;;6.78;;
38567;SDS011;24338;48.280;10.970;2023-01-05T16:37:04;9.55;;;4.07;;
38567;SDS011;24338;48.280;10.970;2023-01-05T16:39:35;12.95;;;4.28;;
38567;SDS011;24338;48.280;10.970;2023-01-05T16:42:16;19.05;;;8.80;;
38567;SDS011;24338;48.280;10.970;2023-01-05T16:45:05;9.73;;;6.07;;
38567;SDS011;24338;48.280;10.970;2023-01-05T16:47:38;10.50;;;5.75;;
38567;SDS011;24338;48.280;10.970;2023-01-05T16:52:56;11.38;;;5.18;;
38567;SDS011;24338;48.280;10.970;2023-01-05T16:55:36;13.40;;;7.40;;
38567;SDS011;24338;48.280;10.970;2023-01-05T16:58:31;21.52;;;16.00;;
38567;SDS011;24338;48.280;10.970;2023-01-05T17:03:39;8.38;;;4.28;;
38567;SDS011;24338;48.280;10.970;2023-01-05T17:06:24;8.02;;;2.28;;
38567;SDS011;24338;48.280;10.970;2023-01-05T17:08:58;8.77;;;2.47;;
38567;SDS011;24338;48.280;10.970;2023-01-05T17:11:29;7.88;;;2.45;;
38567;SDS011;24338;48.280;10.970;2023-01-05T17:14:00;10.95;;;3.03;;
38567;SDS011;24338;48.280;10.970;2023-01-05T17:16:29;15.05;;;5.28;;
38567;SDS011;24338;48.280;10.970;2023-01-05T17:18:56;23.05;;;12.90;;
38567;SDS011;24338;48.280;10.970;2023-01-05T17:21:27;14.80;;;9.13;;
38567;SDS011;24338;48.280;10.970;2023-01-05T17:23:58;17.33;;;11.55;;
38567;SDS011;24338;48.280;10.970;2023-01-05T17:26:26;14.80;;;10.93;;
38567;SDS011;24338;48.280;10.970;2023-01-05T17:31:25;16.75;;;12.38;;
38567;SDS011;24338;48.280;10.970;2023-01-05T17:33:52;13.18;;;6.95;;
38567;SDS011;24338;48.280;10.970;2023-01-05T17:36:20;12.63;;;7.30;;
38567;SDS011;24338;48.280;10.970;2023-01-05T17:38:51;13.65;;;5.28;;
38567;SDS011;24338;48.280;10.970;2023-01-05T17:41:18;11.75;;;5.20;;
38567;SDS011;24338;48.280;10.970;2023-01-05T17:43:45;8.68;;;4.28;;
38567;SDS011;24338;48.280;10.970;2023-01-05T17:46:14;6.18;;;4.10;;
38567;SDS011;24338;48.280;10.970;2023-01-05T17:48:43;7.38;;;3.70;;
38567;SDS011;24338;48.280;10.970;2023-01-05T17:51:10;7.55;;;3.80;;
38567;SDS011;24338;48.280;10.970;2023-01-05T17:53:37;10.40;;;3.95;;
38567;SDS011;24338;48.280;10.970;2023-01-05T17:56:06;6.55;;;3.00;;
38567;SDS011;24338;48.280;10.970;2023-01-05T17:58:33;6.95;;;3.40;;
38567;SDS011;24338;48.280;10.970;2023-01-05T18:00:59;11.18;;;2.95;;
38567;SDS011;24338;48.280;10.970;2023-01-05T18:03:27;9.30;;;3.15;;
38567;SDS011;24338;48.280;10.970;2023-01-05T18:05:53;8.27;;;3.30;;
38567;SDS011;24338;48.280;10.970;2023-01-05T18:08:20;7.00;;;3.45;;
38567;SDS011;24338;48.280;10.970;2023-01-05T18:10:47;6.78;;;3.15;;
38567;SDS011;24338;48.280;10.970;2023-01-05T18:13:14;8.30;;;2.67;;
38567;SDS011;24338;48.280;10.970;2023-01-05T18:15:48;5.72;;;2.10;;